Pagina principale
METAR-TAF:

METAR-TAF

Aeroporti :

Sharurah, Arabia Saudita

latitudine: 17-28N, longitudine: 047-07E, altezza: 720 m

Osservazione

Il bollettino è stato emesso 1 ora e 0 minuti fa, alle 06:00 UTC
Vento 10 kt da est/nord-est
Temperature 37°C
Umidità 17%
Pressione 1007 hPa
Visibilità 10 km o più
Poco nuvoloso ad un'altezza di 4000 ft

METAR: OESH 270600Z 06010KT 9999 FEW040 37/08 Q1007 NOSIG

Ora: 10:00 (07:00 UTC)

Previsione

Il bollettino è stato emesso 8 ore e 0 minuti fa, alle 23:00 UTC
Previsione valida dal 27 alle 00 UTC al 28 alle 06 UTC
Vento 8 kt da ovest/sud-ovest
Visibilità: 7000 m
Poco nuvoloso ad un'altezza di 4000 ft
Temporaneamente
dal 27 alle 00 UTC al 27 alle 12 UTC
Visibilità: 4000 m
polvere diffusa, Scaccia polvere alto
Evoluzione graduale
dal 27 alle 06 UTC al 27 alle 08 UTC
Vento 15 kt da nord-est

TAF: OESH 262300Z 2700/2806 24008KT 7000 FEW040 TEMPO 2700/2712 4000 DU BLDU BECMG 2706/2708 04015KT

Osservazioni e previsioni meteorologiche di più di 4000 aeroporti (messaggi METAR e TAF).

Le stazioni disponibili sono rappresentate dai dischi gialli e rossi sulla carta.

Puntare il mouse per vedere il nome della stazione.

Clicca sopra per visualizzare le osservazioni e previsioni meteorologiche.

Per cambiare la mappa : fare clic sui pulsanti verdi con una croce nera per ingrandire, il pulsante verde con un trattino per diminuire, o sulla freccia verde per le mappe adiacenti.


METAR-TAF: